sensor_id;sensor_type;location;lat;lon;timestamp;P1;durP1;ratioP1;P2;durP2;ratioP2
22935;SDS011;11633;42.716;23.312;2023-02-08T00:00:33;9.17;;;5.73;;
22935;SDS011;11633;42.716;23.312;2023-02-08T00:02:58;12.57;;;6.33;;
22935;SDS011;11633;42.716;23.312;2023-02-08T00:05:23;6.40;;;4.10;;
22935;SDS011;11633;42.716;23.312;2023-02-08T00:07:48;10.03;;;5.37;;
22935;SDS011;11633;42.716;23.312;2023-02-08T00:10:14;8.97;;;5.43;;
22935;SDS011;11633;42.716;23.312;2023-02-08T00:12:39;15.73;;;6.87;;
22935;SDS011;11633;42.716;23.312;2023-02-08T00:15:04;11.50;;;5.50;;
22935;SDS011;11633;42.716;23.312;2023-02-08T00:17:30;10.50;;;5.57;;
22935;SDS011;11633;42.716;23.312;2023-02-08T00:19:55;8.10;;;6.33;;
22935;SDS011;11633;42.716;23.312;2023-02-08T00:22:20;8.13;;;4.90;;
22935;SDS011;11633;42.716;23.312;2023-02-08T00:24:46;14.07;;;6.73;;
22935;SDS011;11633;42.716;23.312;2023-02-08T00:27:11;13.23;;;7.10;;
22935;SDS011;11633;42.716;23.312;2023-02-08T00:29:36;12.07;;;6.53;;
22935;SDS011;11633;42.716;23.312;2023-02-08T00:32:02;12.27;;;7.07;;
22935;SDS011;11633;42.716;23.312;2023-02-08T00:34:27;9.90;;;6.10;;
22935;SDS011;11633;42.716;23.312;2023-02-08T00:36:52;11.33;;;6.23;;
22935;SDS011;11633;42.716;23.312;2023-02-08T00:39:18;9.70;;;6.07;;
22935;SDS011;11633;42.716;23.312;2023-02-08T00:41:45;13.30;;;6.10;;
22935;SDS011;11633;42.716;23.312;2023-02-08T00:44:10;10.17;;;6.13;;
22935;SDS011;11633;42.716;23.312;2023-02-08T00:46:35;12.50;;;7.13;;
22935;SDS011;11633;42.716;23.312;2023-02-08T00:49:01;15.93;;;6.60;;
22935;SDS011;11633;42.716;23.312;2023-02-08T00:51:26;14.87;;;5.87;;
22935;SDS011;11633;42.716;23.312;2023-02-08T00:53:51;11.50;;;6.17;;
22935;SDS011;11633;42.716;23.312;2023-02-08T00:56:16;13.17;;;6.37;;
22935;SDS011;11633;42.716;23.312;2023-02-08T00:58:42;9.67;;;5.90;;
22935;SDS011;11633;42.716;23.312;2023-02-08T01:01:07;12.17;;;6.47;;
22935;SDS011;11633;42.716;23.312;2023-02-08T01:03:33;12.30;;;6.43;;
22935;SDS011;11633;42.716;23.312;2023-02-08T01:06:00;9.77;;;6.13;;
22935;SDS011;11633;42.716;23.312;2023-02-08T01:08:25;13.87;;;5.97;;
22935;SDS011;11633;42.716;23.312;2023-02-08T01:10:50;9.63;;;5.87;;
22935;SDS011;11633;42.716;23.312;2023-02-08T01:13:15;9.53;;;5.27;;
22935;SDS011;11633;42.716;23.312;2023-02-08T01:15:41;11.83;;;5.40;;
22935;SDS011;11633;42.716;23.312;2023-02-08T01:18:06;10.27;;;6.07;;
22935;SDS011;11633;42.716;23.312;2023-02-08T01:20:33;11.63;;;6.30;;
22935;SDS011;11633;42.716;23.312;2023-02-08T01:22:58;13.67;;;5.93;;
22935;SDS011;11633;42.716;23.312;2023-02-08T01:25:24;10.53;;;5.67;;
22935;SDS011;11633;42.716;23.312;2023-02-08T01:27:49;12.60;;;6.37;;
22935;SDS011;11633;42.716;23.312;2023-02-08T01:30:14;10.77;;;6.07;;
22935;SDS011;11633;42.716;23.312;2023-02-08T01:32:39;10.97;;;6.00;;
22935;SDS011;11633;42.716;23.312;2023-02-08T01:35:05;11.33;;;5.90;;
22935;SDS011;11633;42.716;23.312;2023-02-08T01:37:30;13.73;;;6.43;;
22935;SDS011;11633;42.716;23.312;2023-02-08T01:39:55;14.10;;;7.77;;
22935;SDS011;11633;42.716;23.312;2023-02-08T01:42:20;7.83;;;5.00;;
22935;SDS011;11633;42.716;23.312;2023-02-08T01:47:30;12.53;;;6.77;;
22935;SDS011;11633;42.716;23.312;2023-02-08T01:49:55;19.83;;;5.97;;
22935;SDS011;11633;42.716;23.312;2023-02-08T01:52:22;11.13;;;6.47;;
22935;SDS011;11633;42.716;23.312;2023-02-08T01:54:49;14.27;;;5.83;;
22935;SDS011;11633;42.716;23.312;2023-02-08T01:57:15;10.07;;;6.23;;
22935;SDS011;11633;42.716;23.312;2023-02-08T01:59:45;15.13;;;7.17;;
22935;SDS011;11633;42.716;23.312;2023-02-08T02:02:12;13.47;;;7.13;;
22935;SDS011;11633;42.716;23.312;2023-02-08T02:04:38;9.73;;;6.37;;
22935;SDS011;11633;42.716;23.312;2023-02-08T02:07:04;12.57;;;6.87;;
22935;SDS011;11633;42.716;23.312;2023-02-08T02:12:01;11.10;;;6.20;;
22935;SDS011;11633;42.716;23.312;2023-02-08T02:14:26;13.07;;;6.50;;
22935;SDS011;11633;42.716;23.312;2023-02-08T02:16:51;11.40;;;6.40;;
22935;SDS011;11633;42.716;23.312;2023-02-08T02:19:21;14.50;;;6.47;;
22935;SDS011;11633;42.716;23.312;2023-02-08T02:22:06;9.50;;;5.47;;
22935;SDS011;11633;42.716;23.312;2023-02-08T02:42:39;12.13;;;6.30;;
22935;SDS011;11633;42.716;23.312;2023-02-08T02:48:01;12.07;;;5.97;;
22935;SDS011;11633;42.716;23.312;2023-02-08T02:53:10;16.40;;;6.90;;
22935;SDS011;11633;42.716;23.312;2023-02-08T02:55:39;10.80;;;6.00;;
22935;SDS011;11633;42.716;23.312;2023-02-08T02:58:05;11.27;;;5.17;;
22935;SDS011;11633;42.716;23.312;2023-02-08T03:00:32;12.53;;;6.27;;
22935;SDS011;11633;42.716;23.312;2023-02-08T03:02:57;11.43;;;5.33;;
22935;SDS011;11633;42.716;23.312;2023-02-08T03:05:23;9.37;;;5.03;;
22935;SDS011;11633;42.716;23.312;2023-02-08T03:08:00;9.97;;;5.03;;
22935;SDS011;11633;42.716;23.312;2023-02-08T03:20:28;9.53;;;5.07;;
22935;SDS011;11633;42.716;23.312;2023-02-08T03:23:00;9.27;;;5.20;;
22935;SDS011;11633;42.716;23.312;2023-02-08T03:25:30;8.03;;;5.10;;
22935;SDS011;11633;42.716;23.312;2023-02-08T03:33:11;10.03;;;5.77;;
22935;SDS011;11633;42.716;23.312;2023-02-08T03:35:41;11.80;;;5.97;;
22935;SDS011;11633;42.716;23.312;2023-02-08T03:38:30;12.47;;;6.63;;
22935;SDS011;11633;42.716;23.312;2023-02-08T03:40:53;11.57;;;6.23;;
22935;SDS011;11633;42.716;23.312;2023-02-08T03:45:51;13.63;;;6.50;;
22935;SDS011;11633;42.716;23.312;2023-02-08T03:48:18;15.23;;;5.93;;
22935;SDS011;11633;42.716;23.312;2023-02-08T03:50:45;11.00;;;5.80;;
22935;SDS011;11633;42.716;23.312;2023-02-08T03:53:12;12.03;;;7.00;;
22935;SDS011;11633;42.716;23.312;2023-02-08T03:55:39;11.77;;;5.70;;
22935;SDS011;11633;42.716;23.312;2023-02-08T04:00:33;12.13;;;7.47;;
22935;SDS011;11633;42.716;23.312;2023-02-08T04:05:24;14.90;;;7.37;;
22935;SDS011;11633;42.716;23.312;2023-02-08T04:07:50;10.87;;;6.50;;
22935;SDS011;11633;42.716;23.312;2023-02-08T04:10:15;17.00;;;8.90;;
22935;SDS011;11633;42.716;23.312;2023-02-08T04:12:41;13.63;;;8.67;;
22935;SDS011;11633;42.716;23.312;2023-02-08T04:15:06;13.50;;;7.67;;
22935;SDS011;11633;42.716;23.312;2023-02-08T04:17:32;14.83;;;8.13;;
22935;SDS011;11633;42.716;23.312;2023-02-08T04:19:57;11.67;;;6.50;;
22935;SDS011;11633;42.716;23.312;2023-02-08T04:22:22;15.27;;;6.83;;
22935;SDS011;11633;42.716;23.312;2023-02-08T04:24:48;11.00;;;5.90;;
22935;SDS011;11633;42.716;23.312;2023-02-08T04:27:13;10.67;;;5.57;;
22935;SDS011;11633;42.716;23.312;2023-02-08T04:29:38;11.37;;;5.70;;
22935;SDS011;11633;42.716;23.312;2023-02-08T04:32:05;12.80;;;5.63;;
22935;SDS011;11633;42.716;23.312;2023-02-08T04:34:35;10.80;;;6.10;;
22935;SDS011;11633;42.716;23.312;2023-02-08T04:37:00;12.57;;;5.77;;
22935;SDS011;11633;42.716;23.312;2023-02-08T04:39:26;9.57;;;4.87;;
22935;SDS011;11633;42.716;23.312;2023-02-08T04:41:51;9.93;;;5.93;;
22935;SDS011;11633;42.716;23.312;2023-02-08T04:44:16;10.93;;;6.37;;
22935;SDS011;11633;42.716;23.312;2023-02-08T04:46:41;10.73;;;5.80;;
22935;SDS011;11633;42.716;23.312;2023-02-08T04:49:06;6.87;;;4.23;;
22935;SDS011;11633;42.716;23.312;2023-02-08T04:51:32;12.67;;;5.10;;
22935;SDS011;11633;42.716;23.312;2023-02-08T04:53:57;9.97;;;6.00;;
22935;SDS011;11633;42.716;23.312;2023-02-08T04:56:22;8.43;;;5.47;;
22935;SDS011;11633;42.716;23.312;2023-02-08T04:58:47;10.63;;;6.27;;
22935;SDS011;11633;42.716;23.312;2023-02-08T05:01:13;12.07;;;6.63;;
22935;SDS011;11633;42.716;23.312;2023-02-08T05:03:40;14.50;;;5.80;;
22935;SDS011;11633;42.716;23.312;2023-02-08T05:06:05;17.77;;;7.93;;
22935;SDS011;11633;42.716;23.312;2023-02-08T05:08:31;12.30;;;6.23;;
22935;SDS011;11633;42.716;23.312;2023-02-08T05:10:56;12.97;;;5.97;;
22935;SDS011;11633;42.716;23.312;2023-02-08T05:13:21;11.70;;;6.63;;
22935;SDS011;11633;42.716;23.312;2023-02-08T05:15:46;15.37;;;8.00;;
22935;SDS011;11633;42.716;23.312;2023-02-08T05:18:12;12.23;;;7.47;;
22935;SDS011;11633;42.716;23.312;2023-02-08T05:20:37;9.43;;;5.50;;
22935;SDS011;11633;42.716;23.312;2023-02-08T05:23:02;7.70;;;5.17;;
22935;SDS011;11633;42.716;23.312;2023-02-08T05:25:27;11.87;;;7.17;;
22935;SDS011;11633;42.716;23.312;2023-02-08T05:27:52;12.50;;;6.47;;
22935;SDS011;11633;42.716;23.312;2023-02-08T05:30:18;15.17;;;7.77;;
22935;SDS011;11633;42.716;23.312;2023-02-08T05:32:43;12.00;;;7.53;;
22935;SDS011;11633;42.716;23.312;2023-02-08T05:35:08;18.20;;;8.07;;
22935;SDS011;11633;42.716;23.312;2023-02-08T05:37:34;17.83;;;8.17;;
22935;SDS011;11633;42.716;23.312;2023-02-08T05:39:59;13.27;;;7.67;;
22935;SDS011;11633;42.716;23.312;2023-02-08T05:42:24;20.20;;;8.60;;
22935;SDS011;11633;42.716;23.312;2023-02-08T05:44:50;16.60;;;7.90;;
22935;SDS011;11633;42.716;23.312;2023-02-08T05:47:16;16.33;;;8.03;;
22935;SDS011;11633;42.716;23.312;2023-02-08T05:49:41;15.13;;;7.93;;
22935;SDS011;11633;42.716;23.312;2023-02-08T05:52:07;11.07;;;6.80;;
22935;SDS011;11633;42.716;23.312;2023-02-08T05:54:32;17.77;;;8.37;;
22935;SDS011;11633;42.716;23.312;2023-02-08T05:56:57;19.50;;;10.40;;
22935;SDS011;11633;42.716;23.312;2023-02-08T05:59:22;17.67;;;9.77;;
22935;SDS011;11633;42.716;23.312;2023-02-08T06:01:48;22.00;;;10.00;;
22935;SDS011;11633;42.716;23.312;2023-02-08T06:04:13;9.87;;;5.93;;
22935;SDS011;11633;42.716;23.312;2023-02-08T06:06:38;13.67;;;6.70;;
22935;SDS011;11633;42.716;23.312;2023-02-08T06:09:03;14.43;;;8.37;;
22935;SDS011;11633;42.716;23.312;2023-02-08T06:11:29;14.60;;;8.73;;
22935;SDS011;11633;42.716;23.312;2023-02-08T06:13:54;16.33;;;8.23;;
22935;SDS011;11633;42.716;23.312;2023-02-08T06:16:19;13.63;;;8.03;;
22935;SDS011;11633;42.716;23.312;2023-02-08T06:18:44;18.00;;;9.23;;
22935;SDS011;11633;42.716;23.312;2023-02-08T06:21:10;19.67;;;11.63;;
22935;SDS011;11633;42.716;23.312;2023-02-08T06:23:36;20.07;;;11.97;;
22935;SDS011;11633;42.716;23.312;2023-02-08T06:26:01;24.47;;;13.93;;
22935;SDS011;11633;42.716;23.312;2023-02-08T06:28:27;21.90;;;13.63;;
22935;SDS011;11633;42.716;23.312;2023-02-08T06:30:52;22.40;;;12.30;;
22935;SDS011;11633;42.716;23.312;2023-02-08T06:33:17;19.77;;;10.43;;
22935;SDS011;11633;42.716;23.312;2023-02-08T06:35:46;18.17;;;9.90;;
22935;SDS011;11633;42.716;23.312;2023-02-08T06:38:12;17.07;;;9.97;;
22935;SDS011;11633;42.716;23.312;2023-02-08T06:40:38;20.43;;;9.47;;
22935;SDS011;11633;42.716;23.312;2023-02-08T06:43:03;13.13;;;7.33;;
22935;SDS011;11633;42.716;23.312;2023-02-08T06:45:28;19.03;;;7.57;;
22935;SDS011;11633;42.716;23.312;2023-02-08T06:47:54;14.70;;;7.87;;
22935;SDS011;11633;42.716;23.312;2023-02-08T06:50:19;12.07;;;6.70;;
22935;SDS011;11633;42.716;23.312;2023-02-08T06:52:44;10.87;;;5.87;;
22935;SDS011;11633;42.716;23.312;2023-02-08T06:55:09;15.13;;;6.90;;
22935;SDS011;11633;42.716;23.312;2023-02-08T06:57:35;18.70;;;8.00;;
22935;SDS011;11633;42.716;23.312;2023-02-08T07:00:00;13.83;;;7.77;;
22935;SDS011;11633;42.716;23.312;2023-02-08T07:02:25;12.43;;;7.27;;
22935;SDS011;11633;42.716;23.312;2023-02-08T07:04:51;14.20;;;7.30;;
22935;SDS011;11633;42.716;23.312;2023-02-08T07:07:17;11.20;;;6.67;;
22935;SDS011;11633;42.716;23.312;2023-02-08T07:09:42;13.00;;;7.87;;
22935;SDS011;11633;42.716;23.312;2023-02-08T07:12:08;11.87;;;7.50;;
22935;SDS011;11633;42.716;23.312;2023-02-08T07:14:40;11.27;;;6.33;;
22935;SDS011;11633;42.716;23.312;2023-02-08T07:17:06;13.13;;;7.07;;
22935;SDS011;11633;42.716;23.312;2023-02-08T07:19:31;13.80;;;7.33;;
22935;SDS011;11633;42.716;23.312;2023-02-08T07:21:57;11.80;;;6.80;;
22935;SDS011;11633;42.716;23.312;2023-02-08T07:24:28;13.23;;;6.07;;
22935;SDS011;11633;42.716;23.312;2023-02-08T07:26:53;16.60;;;7.63;;
22935;SDS011;11633;42.716;23.312;2023-02-08T07:29:19;17.10;;;8.73;;
22935;SDS011;11633;42.716;23.312;2023-02-08T07:31:44;19.63;;;8.03;;
22935;SDS011;11633;42.716;23.312;2023-02-08T07:34:09;13.23;;;7.37;;
22935;SDS011;11633;42.716;23.312;2023-02-08T07:36:34;13.73;;;6.53;;
22935;SDS011;11633;42.716;23.312;2023-02-08T07:39:00;12.77;;;7.00;;
22935;SDS011;11633;42.716;23.312;2023-02-08T07:41:25;14.57;;;7.20;;
22935;SDS011;11633;42.716;23.312;2023-02-08T07:43:50;13.97;;;6.33;;
22935;SDS011;11633;42.716;23.312;2023-02-08T07:46:16;9.87;;;5.40;;
22935;SDS011;11633;42.716;23.312;2023-02-08T07:48:42;9.33;;;5.67;;
22935;SDS011;11633;42.716;23.312;2023-02-08T07:51:08;13.17;;;7.13;;
22935;SDS011;11633;42.716;23.312;2023-02-08T07:53:33;16.10;;;7.97;;
22935;SDS011;11633;42.716;23.312;2023-02-08T07:55:58;12.00;;;6.53;;
22935;SDS011;11633;42.716;23.312;2023-02-08T07:58:24;12.47;;;7.33;;
22935;SDS011;11633;42.716;23.312;2023-02-08T08:00:49;13.70;;;6.87;;
22935;SDS011;11633;42.716;23.312;2023-02-08T08:03:14;16.57;;;6.90;;
22935;SDS011;11633;42.716;23.312;2023-02-08T08:05:40;12.30;;;6.20;;
22935;SDS011;11633;42.716;23.312;2023-02-08T08:08:06;11.50;;;6.93;;
22935;SDS011;11633;42.716;23.312;2023-02-08T08:10:32;14.17;;;7.17;;
22935;SDS011;11633;42.716;23.312;2023-02-08T08:12:57;15.63;;;7.97;;
22935;SDS011;11633;42.716;23.312;2023-02-08T08:15:23;12.03;;;6.27;;
22935;SDS011;11633;42.716;23.312;2023-02-08T08:17:48;16.23;;;7.83;;
22935;SDS011;11633;42.716;23.312;2023-02-08T08:20:13;13.17;;;7.97;;
22935;SDS011;11633;42.716;23.312;2023-02-08T08:22:38;13.93;;;7.33;;
22935;SDS011;11633;42.716;23.312;2023-02-08T08:25:04;14.57;;;7.47;;
22935;SDS011;11633;42.716;23.312;2023-02-08T08:27:29;13.90;;;7.27;;
22935;SDS011;11633;42.716;23.312;2023-02-08T08:29:54;15.73;;;8.00;;
22935;SDS011;11633;42.716;23.312;2023-02-08T08:32:20;12.90;;;6.37;;
22935;SDS011;11633;42.716;23.312;2023-02-08T08:34:45;14.83;;;8.10;;
22935;SDS011;11633;42.716;23.312;2023-02-08T08:37:10;13.47;;;6.87;;
22935;SDS011;11633;42.716;23.312;2023-02-08T08:39:35;15.40;;;7.00;;
22935;SDS011;11633;42.716;23.312;2023-02-08T08:42:01;13.97;;;6.53;;
22935;SDS011;11633;42.716;23.312;2023-02-08T08:44:28;18.38;;;7.72;;
22935;SDS011;11633;42.716;23.312;2023-02-08T08:46:53;15.23;;;7.03;;
22935;SDS011;11633;42.716;23.312;2023-02-08T08:49:19;14.97;;;6.73;;
22935;SDS011;11633;42.716;23.312;2023-02-08T08:51:45;11.23;;;6.03;;
22935;SDS011;11633;42.716;23.312;2023-02-08T08:54:10;11.97;;;7.60;;
22935;SDS011;11633;42.716;23.312;2023-02-08T08:56:35;14.43;;;6.80;;
22935;SDS011;11633;42.716;23.312;2023-02-08T08:59:01;9.97;;;6.10;;
22935;SDS011;11633;42.716;23.312;2023-02-08T09:01:26;12.37;;;6.60;;
22935;SDS011;11633;42.716;23.312;2023-02-08T09:03:51;13.13;;;7.00;;
22935;SDS011;11633;42.716;23.312;2023-02-08T09:06:16;16.23;;;7.73;;
22935;SDS011;11633;42.716;23.312;2023-02-08T09:08:42;11.93;;;6.70;;
22935;SDS011;11633;42.716;23.312;2023-02-08T09:11:09;15.35;;;7.75;;
22935;SDS011;11633;42.716;23.312;2023-02-08T09:13:35;15.67;;;8.37;;
22935;SDS011;11633;42.716;23.312;2023-02-08T09:16:33;15.57;;;7.07;;
22935;SDS011;11633;42.716;23.312;2023-02-08T09:18:52;11.15;;;6.28;;
22935;SDS011;11633;42.716;23.312;2023-02-08T09:21:18;13.90;;;6.07;;
22935;SDS011;11633;42.716;23.312;2023-02-08T09:23:44;7.17;;;4.73;;
22935;SDS011;11633;42.716;23.312;2023-02-08T09:26:11;10.57;;;4.47;;
22935;SDS011;11633;42.716;23.312;2023-02-08T09:28:37;11.80;;;5.70;;
22935;SDS011;11633;42.716;23.312;2023-02-08T09:31:06;11.03;;;5.23;;
22935;SDS011;11633;42.716;23.312;2023-02-08T09:33:31;7.73;;;4.50;;
22935;SDS011;11633;42.716;23.312;2023-02-08T09:35:57;9.87;;;4.33;;
22935;SDS011;11633;42.716;23.312;2023-02-08T09:38:22;11.80;;;5.10;;
22935;SDS011;11633;42.716;23.312;2023-02-08T09:46:00;6.73;;;4.50;;
22935;SDS011;11633;42.716;23.312;2023-02-08T09:50:53;10.70;;;4.87;;
22935;SDS011;11633;42.716;23.312;2023-02-08T09:53:21;14.17;;;6.07;;
22935;SDS011;11633;42.716;23.312;2023-02-08T09:55:55;8.85;;;4.63;;
22935;SDS011;11633;42.716;23.312;2023-02-08T10:03:45;10.97;;;6.13;;
22935;SDS011;11633;42.716;23.312;2023-02-08T10:06:14;9.27;;;4.83;;
22935;SDS011;11633;42.716;23.312;2023-02-08T10:08:41;8.55;;;3.88;;
22935;SDS011;11633;42.716;23.312;2023-02-08T10:11:22;5.27;;;3.20;;
22935;SDS011;11633;42.716;23.312;2023-02-08T10:30:47;5.28;;;3.30;;
22935;SDS011;11633;42.716;23.312;2023-02-08T10:33:00;5.97;;;2.85;;
22935;SDS011;11633;42.716;23.312;2023-02-08T10:38:02;9.18;;;3.88;;
22935;SDS011;11633;42.716;23.312;2023-02-08T10:40:34;6.75;;;3.42;;
22935;SDS011;11633;42.716;23.312;2023-02-08T10:43:09;7.03;;;3.50;;
22935;SDS011;11633;42.716;23.312;2023-02-08T10:46:00;7.38;;;4.03;;
22935;SDS011;11633;42.716;23.312;2023-02-08T10:49:24;7.22;;;3.55;;
22935;SDS011;11633;42.716;23.312;2023-02-08T10:51:16;6.45;;;2.95;;
22935;SDS011;11633;42.716;23.312;2023-02-08T10:53:42;8.97;;;3.63;;
22935;SDS011;11633;42.716;23.312;2023-02-08T10:58:45;6.23;;;3.67;;
22935;SDS011;11633;42.716;23.312;2023-02-08T11:01:10;9.97;;;3.90;;
22935;SDS011;11633;42.716;23.312;2023-02-08T11:03:35;5.83;;;3.43;;
22935;SDS011;11633;42.716;23.312;2023-02-08T11:06:03;8.03;;;4.23;;
22935;SDS011;11633;42.716;23.312;2023-02-08T11:08:28;6.73;;;3.40;;
22935;SDS011;11633;42.716;23.312;2023-02-08T11:11:04;4.73;;;2.77;;
22935;SDS011;11633;42.716;23.312;2023-02-08T11:13:42;6.40;;;3.63;;
22935;SDS011;11633;42.716;23.312;2023-02-08T11:16:09;5.43;;;3.27;;
22935;SDS011;11633;42.716;23.312;2023-02-08T11:18:40;7.43;;;3.17;;
22935;SDS011;11633;42.716;23.312;2023-02-08T11:21:21;5.13;;;3.13;;
22935;SDS011;11633;42.716;23.312;2023-02-08T11:23:50;10.67;;;4.27;;
22935;SDS011;11633;42.716;23.312;2023-02-08T11:31:26;7.15;;;3.35;;
22935;SDS011;11633;42.716;23.312;2023-02-08T11:34:01;6.50;;;3.78;;
22935;SDS011;11633;42.716;23.312;2023-02-08T11:36:30;6.43;;;3.42;;
22935;SDS011;11633;42.716;23.312;2023-02-08T11:39:20;4.70;;;3.13;;
22935;SDS011;11633;42.716;23.312;2023-02-08T11:41:43;6.88;;;3.97;;
22935;SDS011;11633;42.716;23.312;2023-02-08T11:44:11;17.00;;;3.70;;
22935;SDS011;11633;42.716;23.312;2023-02-08T11:46:44;7.63;;;3.90;;
22935;SDS011;11633;42.716;23.312;2023-02-08T11:52:28;7.60;;;3.50;;
22935;SDS011;11633;42.716;23.312;2023-02-08T11:54:54;5.63;;;2.83;;
22935;SDS011;11633;42.716;23.312;2023-02-08T11:57:34;4.30;;;3.57;;
22935;SDS011;11633;42.716;23.312;2023-02-08T12:00:20;5.93;;;3.63;;
22935;SDS011;11633;42.716;23.312;2023-02-08T12:02:45;7.57;;;3.93;;
22935;SDS011;11633;42.716;23.312;2023-02-08T12:05:12;5.10;;;3.10;;
22935;SDS011;11633;42.716;23.312;2023-02-08T12:10:17;4.97;;;3.70;;
22935;SDS011;11633;42.716;23.312;2023-02-08T12:22:26;5.83;;;2.97;;
22935;SDS011;11633;42.716;23.312;2023-02-08T12:25:02;6.60;;;2.90;;
22935;SDS011;11633;42.716;23.312;2023-02-08T12:30:04;4.63;;;2.70;;
22935;SDS011;11633;42.716;23.312;2023-02-08T12:32:35;3.87;;;2.13;;
22935;SDS011;11633;42.716;23.312;2023-02-08T12:37:44;2.83;;;2.17;;
22935;SDS011;11633;42.716;23.312;2023-02-08T12:41:14;4.80;;;2.30;;
22935;SDS011;11633;42.716;23.312;2023-02-08T12:43:30;3.33;;;2.05;;
22935;SDS011;11633;42.716;23.312;2023-02-08T12:48:31;3.77;;;1.70;;
22935;SDS011;11633;42.716;23.312;2023-02-08T12:51:14;4.07;;;2.47;;
22935;SDS011;11633;42.716;23.312;2023-02-08T12:53:44;4.00;;;2.77;;
22935;SDS011;11633;42.716;23.312;2023-02-08T12:56:12;3.40;;;2.20;;
22935;SDS011;11633;42.716;23.312;2023-02-08T12:58:43;4.47;;;2.00;;
22935;SDS011;11633;42.716;23.312;2023-02-08T13:01:18;4.13;;;2.58;;
22935;SDS011;11633;42.716;23.312;2023-02-08T13:03:50;6.67;;;3.13;;
22935;SDS011;11633;42.716;23.312;2023-02-08T13:06:20;4.07;;;2.08;;
22935;SDS011;11633;42.716;23.312;2023-02-08T13:08:51;7.10;;;2.75;;
22935;SDS011;11633;42.716;23.312;2023-02-08T13:11:19;5.10;;;2.55;;
22935;SDS011;11633;42.716;23.312;2023-02-08T13:13:54;5.85;;;2.75;;
22935;SDS011;11633;42.716;23.312;2023-02-08T13:16:22;4.38;;;2.30;;
22935;SDS011;11633;42.716;23.312;2023-02-08T13:18:59;3.53;;;2.08;;
22935;SDS011;11633;42.716;23.312;2023-02-08T13:21:28;4.30;;;2.47;;
22935;SDS011;11633;42.716;23.312;2023-02-08T13:23:54;6.22;;;2.42;;
22935;SDS011;11633;42.716;23.312;2023-02-08T13:28:47;2.70;;;2.07;;
22935;SDS011;11633;42.716;23.312;2023-02-08T13:31:14;3.53;;;2.50;;
22935;SDS011;11633;42.716;23.312;2023-02-08T13:33:42;6.73;;;3.10;;
22935;SDS011;11633;42.716;23.312;2023-02-08T13:36:49;3.97;;;1.93;;
22935;SDS011;11633;42.716;23.312;2023-02-08T13:39:02;3.63;;;1.60;;
22935;SDS011;11633;42.716;23.312;2023-02-08T13:41:28;5.50;;;3.88;;
22935;SDS011;11633;42.716;23.312;2023-02-08T13:43:59;4.20;;;3.00;;
22935;SDS011;11633;42.716;23.312;2023-02-08T13:46:25;7.57;;;2.47;;
22935;SDS011;11633;42.716;23.312;2023-02-08T13:48:53;6.63;;;2.83;;
22935;SDS011;11633;42.716;23.312;2023-02-08T13:56:38;3.27;;;1.90;;
22935;SDS011;11633;42.716;23.312;2023-02-08T14:04:35;5.97;;;3.00;;
22935;SDS011;11633;42.716;23.312;2023-02-08T14:12:26;5.30;;;2.70;;
22935;SDS011;11633;42.716;23.312;2023-02-08T14:17:30;6.40;;;2.73;;
22935;SDS011;11633;42.716;23.312;2023-02-08T14:19:57;13.40;;;4.20;;
22935;SDS011;11633;42.716;23.312;2023-02-08T14:22:23;5.83;;;2.20;;
22935;SDS011;11633;42.716;23.312;2023-02-08T14:27:59;15.13;;;5.00;;
22935;SDS011;11633;42.716;23.312;2023-02-08T14:30:27;4.43;;;2.23;;
22935;SDS011;11633;42.716;23.312;2023-02-08T14:35:25;3.23;;;1.70;;
22935;SDS011;11633;42.716;23.312;2023-02-08T14:38:29;3.13;;;1.83;;
22935;SDS011;11633;42.716;23.312;2023-02-08T14:40:47;7.47;;;3.03;;
22935;SDS011;11633;42.716;23.312;2023-02-08T14:45:51;4.63;;;2.57;;
22935;SDS011;11633;42.716;23.312;2023-02-08T14:50:49;3.77;;;2.50;;
22935;SDS011;11633;42.716;23.312;2023-02-08T14:53:20;4.03;;;3.17;;
22935;SDS011;11633;42.716;23.312;2023-02-08T14:55:49;7.10;;;3.60;;
22935;SDS011;11633;42.716;23.312;2023-02-08T14:58:20;5.87;;;2.97;;
22935;SDS011;11633;42.716;23.312;2023-02-08T15:00:46;7.07;;;3.27;;
22935;SDS011;11633;42.716;23.312;2023-02-08T15:03:15;4.30;;;2.60;;
22935;SDS011;11633;42.716;23.312;2023-02-08T15:05:57;7.30;;;3.00;;
22935;SDS011;11633;42.716;23.312;2023-02-08T15:08:25;6.27;;;2.03;;
22935;SDS011;11633;42.716;23.312;2023-02-08T15:10:51;2.00;;;1.53;;
22935;SDS011;11633;42.716;23.312;2023-02-08T15:13:17;4.47;;;3.20;;
22935;SDS011;11633;42.716;23.312;2023-02-08T15:15:43;5.23;;;2.03;;
22935;SDS011;11633;42.716;23.312;2023-02-08T15:18:27;3.90;;;2.50;;
22935;SDS011;11633;42.716;23.312;2023-02-08T15:21:00;3.67;;;2.17;;
22935;SDS011;11633;42.716;23.312;2023-02-08T15:23:26;3.53;;;2.53;;
22935;SDS011;11633;42.716;23.312;2023-02-08T15:25:59;1.93;;;1.27;;
22935;SDS011;11633;42.716;23.312;2023-02-08T15:28:25;5.27;;;2.23;;
22935;SDS011;11633;42.716;23.312;2023-02-08T15:30:55;5.17;;;2.27;;
22935;SDS011;11633;42.716;23.312;2023-02-08T15:33:21;3.07;;;2.00;;
22935;SDS011;11633;42.716;23.312;2023-02-08T15:35:54;5.07;;;3.07;;
22935;SDS011;11633;42.716;23.312;2023-02-08T15:38:20;5.67;;;3.10;;
22935;SDS011;11633;42.716;23.312;2023-02-08T15:41:03;2.93;;;2.20;;
22935;SDS011;11633;42.716;23.312;2023-02-08T15:43:28;5.87;;;3.30;;
22935;SDS011;11633;42.716;23.312;2023-02-08T15:45:57;2.90;;;2.27;;
22935;SDS011;11633;42.716;23.312;2023-02-08T15:48:24;4.63;;;3.23;;
22935;SDS011;11633;42.716;23.312;2023-02-08T15:50:50;5.50;;;2.83;;
22935;SDS011;11633;42.716;23.312;2023-02-08T15:53:16;4.00;;;2.83;;
22935;SDS011;11633;42.716;23.312;2023-02-08T15:55:49;7.30;;;3.77;;
22935;SDS011;11633;42.716;23.312;2023-02-08T15:58:50;8.80;;;4.40;;
22935;SDS011;11633;42.716;23.312;2023-02-08T16:01:08;18.63;;;6.17;;
22935;SDS011;11633;42.716;23.312;2023-02-08T16:03:38;10.63;;;4.70;;
22935;SDS011;11633;42.716;23.312;2023-02-08T16:06:04;8.43;;;5.43;;
22935;SDS011;11633;42.716;23.312;2023-02-08T16:08:34;7.90;;;4.47;;
22935;SDS011;11633;42.716;23.312;2023-02-08T16:11:42;9.83;;;3.93;;
22935;SDS011;11633;42.716;23.312;2023-02-08T16:13:48;6.83;;;4.43;;
22935;SDS011;11633;42.716;23.312;2023-02-08T16:16:34;13.83;;;5.97;;
22935;SDS011;11633;42.716;23.312;2023-02-08T16:19:43;8.30;;;5.07;;
22935;SDS011;11633;42.716;23.312;2023-02-08T16:21:49;12.10;;;4.50;;
22935;SDS011;11633;42.716;23.312;2023-02-08T16:29:25;8.87;;;4.13;;
22935;SDS011;11633;42.716;23.312;2023-02-08T16:32:02;6.47;;;4.20;;
22935;SDS011;11633;42.716;23.312;2023-02-08T16:34:31;6.13;;;3.50;;
22935;SDS011;11633;42.716;23.312;2023-02-08T16:36:57;9.27;;;4.80;;
22935;SDS011;11633;42.716;23.312;2023-02-08T16:42:01;9.40;;;4.00;;
22935;SDS011;11633;42.716;23.312;2023-02-08T16:44:31;9.63;;;4.67;;
22935;SDS011;11633;42.716;23.312;2023-02-08T16:46:57;8.00;;;4.37;;
22935;SDS011;11633;42.716;23.312;2023-02-08T16:49:23;5.73;;;3.50;;
22935;SDS011;11633;42.716;23.312;2023-02-08T16:51:48;4.07;;;2.67;;
22935;SDS011;11633;42.716;23.312;2023-02-08T16:54:17;5.63;;;2.97;;
22935;SDS011;11633;42.716;23.312;2023-02-08T16:56:43;10.83;;;5.80;;
22935;SDS011;11633;42.716;23.312;2023-02-08T16:59:11;13.30;;;6.07;;
22935;SDS011;11633;42.716;23.312;2023-02-08T17:01:36;10.70;;;5.77;;
22935;SDS011;11633;42.716;23.312;2023-02-08T17:04:02;11.23;;;6.23;;